Time;durP1;ratioP1;P1;durP2;ratioP2;P2;SDS_P1;SDS_P2;PMS_P1;PMS_P2;Temp;Humidity;BMP_temperature;BMP_pressure;BME280_temperature;BME280_humidity;BME280_pressure;Samples;Min_cycle;Max_cycle;Signal;HPM_P1;HPM_P2
2022/09/26 00:05:18;;;;;;;;;;;15.20;99.90;15.50;99264.00;;;;99658;23;82878;31
2022/09/26 00:05:31;;;;;;;;;;;15.20;99.90;15.60;99268.00;;;;333229;29;91789;-87
2022/09/26 00:05:43;;;;;;;;;;;15.20;99.90;15.50;99266.00;;;;333463;29;82519;-88
2022/09/26 00:06:00;;;;;;;;;;;15.20;99.90;15.50;99269.00;;;;331348;29;90501;-88
2022/09/26 00:06:12;;;;;;;;;;;15.20;99.90;15.50;99267.00;;;;332069;29;83417;-87
2022/09/26 00:06:24;;;;;;;;;;;15.20;99.90;15.50;99258.00;;;;331368;29;90265;-88
2022/09/26 00:06:35;;;;;;;;;;;15.20;99.90;15.60;99264.00;;;;334236;29;82649;-88
2022/09/26 00:06:47;;;;;;;;;;;15.20;99.90;15.60;99263.00;;;;332765;29;91534;-86
2022/09/26 00:06:59;;;;;;;;;;;15.20;99.90;15.60;99264.00;;;;333237;29;83430;-87
2022/09/26 00:07:11;;;;;;;;;;;15.20;99.90;15.60;99253.00;;;;332722;29;88371;-87
2022/09/26 00:07:22;;;;;;;;;;;15.20;99.90;15.60;99261.00;;;;333184;29;83462;-88
2022/09/26 00:07:34;;;;;;;;;;;15.20;99.90;15.60;99259.00;;;;332890;29;91713;-88
2022/09/26 00:07:46;;;;;;;;;;;15.30;99.90;15.60;99269.00;;;;334487;29;84235;-87
2022/09/26 00:07:58;;;;;;;;;;;15.20;99.90;15.60;99257.00;;;;334149;29;92263;-87
2022/09/26 00:08:09;;;;;;;;;;;15.20;99.90;15.50;99255.00;;;;333357;29;83369;-87
2022/09/26 00:08:21;;;;;;;;;;;15.20;99.90;15.40;99262.00;;;;334120;29;91348;-87
2022/09/26 00:08:34;;;;;;;;;;;15.20;99.90;15.40;99259.00;;;;333330;29;82621;-88
2022/09/26 00:08:46;;;;;;;;;;;15.20;99.90;15.40;99267.00;;;;332604;29;91253;-87
2022/09/26 00:08:58;;;;;;;;;;;15.20;99.90;15.50;99261.00;;;;333508;29;83302;-87
2022/09/26 00:09:10;;;;;;;;;;;15.20;99.90;15.50;99262.00;;;;334416;29;90525;-88
2022/09/26 00:09:23;;;;;;;;;;;15.20;99.90;15.50;99258.00;;;;334489;29;83460;-88
2022/09/26 00:09:34;;;;;;;;;;;15.20;99.90;15.50;99266.00;;;;332896;29;88044;-88
2022/09/26 00:09:47;;;;;;;;;;;15.20;99.90;15.50;99260.00;;;;333022;29;82728;-87
2022/09/26 00:09:59;;;;;;;;;;;15.20;99.90;15.50;99263.00;;;;334068;29;90529;-88
2022/09/26 00:10:11;;;;;;;;;;;15.20;99.90;15.50;99259.00;;;;334082;29;82661;-87
2022/09/26 00:10:22;;;;;;;;;;;15.20;99.90;15.50;99260.00;;;;333974;29;89027;-87
2022/09/26 00:10:34;;;;;;;;;;;15.20;99.90;15.50;99266.00;;;;334053;29;84442;-88
2022/09/26 00:10:53;;;;;;;;;;;15.20;99.90;15.50;99253.00;;;;332447;29;91541;-88
2022/09/26 00:11:07;;;;;;;;;;;15.20;99.90;15.60;99263.00;;;;333183;29;83411;-88
2022/09/26 00:11:21;;;;;;;;;;;15.20;99.90;15.60;99264.00;;;;332464;29;89651;-87
2022/09/26 00:11:32;;;;;;;;;;;15.20;99.90;15.60;99263.00;;;;332868;29;83346;-88
2022/09/26 00:11:44;;;;;;;;;;;15.20;99.90;15.50;99261.00;;;;332299;29;90028;-87
2022/09/26 00:11:56;;;;;;;;;;;15.20;99.90;15.50;99264.00;;;;331214;29;83562;-88
2022/09/26 00:12:08;;;;;;;;;;;15.20;99.90;15.50;99257.00;;;;331275;29;90402;-88
2022/09/26 00:12:20;;;;;;;;;;;15.20;99.90;15.50;99262.00;;;;333000;29;83358;-87
2022/09/26 00:12:31;;;;;;;;;;;15.30;99.90;15.40;99268.00;;;;330007;29;89400;-88
2022/09/26 00:12:44;;;;;;;;;;;15.20;99.90;15.50;99263.00;;;;331657;29;83583;-88
2022/09/26 00:12:56;;;;;;;;;;;15.20;99.90;15.60;99265.00;;;;332092;29;92760;-88
2022/09/26 00:13:07;;;;;;;;;;;15.20;99.90;15.50;99263.00;;;;332775;29;83530;-87
2022/09/26 00:13:19;;;;;;;;;;;15.20;99.90;15.60;99268.00;;;;332350;29;90754;-87
2022/09/26 00:13:32;;;;;;;;;;;15.20;99.90;15.40;99264.00;;;;331535;29;83552;-87
2022/09/26 00:13:44;;;;;;;;;;;15.30;99.90;15.40;99273.00;;;;332485;29;87761;-87
2022/09/26 00:13:57;;;;;;;;;;;15.30;99.90;15.50;99270.00;;;;332594;29;82618;-88
2022/09/26 00:14:21;;;;;;;;;;;15.20;99.90;15.50;99262.00;;;;333493;29;90841;-88
2022/09/26 00:14:32;;;;;;;;;;;15.20;99.90;15.60;99270.00;;;;333859;29;82714;-88
2022/09/26 00:14:44;;;;;;;;;;;15.30;99.90;15.50;99263.00;;;;332495;29;88438;-86
2022/09/26 00:14:56;;;;;;;;;;;15.30;99.90;15.40;99270.00;;;;332572;29;83565;-88
2022/09/26 00:15:08;;;;;;;;;;;15.30;99.90;15.40;99268.00;;;;332225;29;91956;-88
2022/09/26 00:15:20;;;;;;;;;;;15.20;99.90;15.50;99260.00;;;;333234;29;83410;-87
2022/09/26 00:15:31;;;;;;;;;;;15.20;99.90;15.60;99265.00;;;;332941;29;87681;-87
2022/09/26 00:15:46;;;;;;;;;;;15.20;99.90;15.60;99258.00;;;;331966;29;82635;-87
2022/09/26 00:15:58;;;;;;;;;;;15.30;99.90;15.60;99263.00;;;;331750;29;87976;-88
2022/09/26 00:16:10;;;;;;;;;;;15.30;99.90;15.60;99261.00;;;;331607;29;82621;-87
2022/09/26 00:16:22;;;;;;;;;;;15.30;99.90;15.50;99255.00;;;;329640;29;91458;-87
2022/09/26 00:16:34;;;;;;;;;;;15.30;99.90;15.50;99266.00;;;;331214;29;83521;-88
2022/09/26 00:16:46;;;;;;;;;;;15.30;99.90;15.50;99267.00;;;;328568;29;89672;-88
2022/09/26 00:16:58;;;;;;;;;;;15.30;99.90;15.40;99266.00;;;;332684;29;83667;-88
2022/09/26 00:17:10;;;;;;;;;;;15.30;99.90;15.30;99267.00;;;;331891;29;91932;-88
2022/09/26 00:17:22;;;;;;;;;;;15.20;99.90;15.40;99263.00;;;;330145;29;83481;-87
2022/09/26 00:17:33;;;;;;;;;;;15.20;99.90;15.50;99268.00;;;;329887;29;89777;-87
2022/09/26 00:17:45;;;;;;;;;;;15.20;99.90;15.50;99275.00;;;;332817;29;83504;-87
2022/09/26 00:17:57;;;;;;;;;;;15.20;99.90;15.60;99267.00;;;;333956;29;86303;-87
2022/09/26 00:18:09;;;;;;;;;;;15.20;99.90;15.60;99264.00;;;;332867;29;83628;-88
2022/09/26 00:18:21;;;;;;;;;;;15.30;99.90;15.60;99263.00;;;;331297;29;90513;-88
2022/09/26 00:18:33;;;;;;;;;;;15.30;99.90;15.50;99277.00;;;;333097;29;82612;-88
2022/09/26 00:18:49;;;;;;;;;;;15.30;99.90;15.50;99263.00;;;;332565;29;90344;-88
2022/09/26 00:19:00;;;;;;;;;;;15.30;99.90;15.50;99261.00;;;;331710;29;83571;-88
2022/09/26 00:19:12;;;;;;;;;;;15.30;99.90;15.50;99261.00;;;;333745;29;92657;-86
2022/09/26 00:19:24;;;;;;;;;;;15.30;99.90;15.60;99267.00;;;;334502;29;82580;-86
2022/09/26 00:19:36;;;;;;;;;;;15.30;99.90;15.50;99267.00;;;;332761;29;87668;-88
2022/09/26 00:19:47;;;;;;;;;;;15.20;99.90;15.40;99262.00;;;;332798;29;83563;-88
2022/09/26 00:19:59;;;;;;;;;;;15.30;99.90;15.50;99265.00;;;;333904;29;91611;-87
2022/09/26 00:20:11;;;;;;;;;;;15.30;99.90;15.50;99269.00;;;;333044;29;82678;-87
2022/09/26 00:20:23;;;;;;;;;;;15.30;99.90;15.30;99265.00;;;;331345;29;88536;-88
2022/09/26 00:20:35;;;;;;;;;;;15.20;99.90;15.20;99266.00;;;;331724;29;83596;-87
2022/09/26 00:20:47;;;;;;;;;;;15.20;99.90;15.20;99259.00;;;;333795;29;90538;-86
2022/09/26 00:21:11;;;;;;;;;;;15.10;99.90;15.30;99266.00;;;;334234;29;83527;-88
2022/09/26 00:21:24;;;;;;;;;;;15.10;99.90;15.30;99263.00;;;;330318;29;88992;-87
2022/09/26 00:21:35;;;;;;;;;;;15.10;99.90;15.30;99269.00;;;;331572;29;82568;-87
2022/09/26 00:21:47;;;;;;;;;;;15.10;99.90;15.30;99267.00;;;;331265;29;90440;-88
2022/09/26 00:21:59;;;;;;;;;;;15.10;99.90;15.20;99264.00;;;;333212;29;83428;-87
2022/09/26 00:22:10;;;;;;;;;;;15.10;99.90;15.20;99273.00;;;;331449;29;90456;-87
2022/09/26 00:22:22;;;;;;;;;;;15.10;99.90;15.20;99268.00;;;;333109;29;82638;-87
2022/09/26 00:22:34;;;;;;;;;;;15.10;99.90;15.30;99266.00;;;;332531;29;87706;-88
2022/09/26 00:22:45;;;;;;;;;;;15.10;99.90;15.30;99265.00;;;;333970;29;83365;-87
2022/09/26 00:22:57;;;;;;;;;;;15.10;99.90;15.30;99266.00;;;;331225;29;90669;-86
2022/09/26 00:23:09;;;;;;;;;;;15.10;99.90;15.30;99271.00;;;;331823;29;82544;-87
2022/09/26 00:23:21;;;;;;;;;;;15.10;99.90;15.30;99260.00;;;;332393;29;92584;-87
2022/09/26 00:23:33;;;;;;;;;;;15.10;99.90;15.30;99265.00;;;;333240;29;82389;-88
2022/09/26 00:23:44;;;;;;;;;;;15.10;99.90;15.30;99267.00;;;;331177;29;90637;-88
2022/09/26 00:23:57;;;;;;;;;;;15.10;99.90;15.30;99262.00;;;;332919;29;82516;-88
2022/09/26 00:24:08;;;;;;;;;;;15.10;99.90;15.40;99264.00;;;;333836;29;91001;-88
2022/09/26 00:24:20;;;;;;;;;;;15.10;99.90;15.40;99267.00;;;;334217;29;83267;-88
2022/09/26 00:24:32;;;;;;;;;;;15.10;99.90;15.40;99262.00;;;;329883;29;90656;-87
2022/09/26 00:24:44;;;;;;;;;;;15.10;99.90;15.40;99259.00;;;;332898;29;83521;-86
2022/09/26 00:24:55;;;;;;;;;;;15.10;99.90;15.40;99258.00;;;;332659;29;89223;-87
2022/09/26 00:25:07;;;;;;;;;;;15.10;99.90;15.40;99261.00;;;;331677;29;83399;-87
2022/09/26 00:25:19;;;;;;;;;;;15.10;99.90;15.40;99257.00;;;;331269;29;91407;-88
2022/09/26 00:25:31;;;;;;;;;;;15.10;99.90;15.40;99259.00;;;;333072;29;82454;-87
2022/09/26 00:25:46;;;;;;;;;;;15.10;99.90;15.50;99260.00;;;;332609;29;90574;-87
2022/09/26 00:25:58;;;;;;;;;;;15.10;99.90;15.50;99256.00;;;;332817;29;82542;-88
2022/09/26 00:26:10;;;;;;;;;;;15.10;99.90;15.50;99259.00;;;;331171;29;90870;-88
2022/09/26 00:26:22;;;;;;;;;;;15.10;99.90;15.40;99264.00;;;;333113;29;82495;-86
2022/09/26 00:26:35;;;;;;;;;;;15.10;99.90;15.40;99261.00;;;;333550;29;91477;-87
2022/09/26 00:26:46;;;;;;;;;;;15.10;99.90;15.50;99263.00;;;;334217;29;82522;-87
2022/09/26 00:26:58;;;;;;;;;;;15.10;99.90;15.40;99259.00;;;;332000;29;91808;-87
2022/09/26 00:27:10;;;;;;;;;;;15.10;99.90;15.40;99264.00;;;;332995;29;83545;-87
2022/09/26 00:27:21;;;;;;;;;;;15.10;99.90;15.40;99258.00;;;;333799;29;91384;-87
2022/09/26 00:27:33;;;;;;;;;;;15.10;99.90;15.40;99256.00;;;;332886;29;82519;-88
2022/09/26 00:27:45;;;;;;;;;;;15.10;99.90;15.40;99260.00;;;;333635;29;91261;-88
2022/09/26 00:27:56;;;;;;;;;;;15.10;99.90;15.40;99260.00;;;;333895;29;83554;-88
2022/09/26 00:28:08;;;;;;;;;;;15.20;99.90;15.50;99263.00;;;;332284;29;90516;-88
2022/09/26 00:28:20;;;;;;;;;;;15.10;99.90;15.50;99255.00;;;;332899;29;83256;-87
2022/09/26 00:28:32;;;;;;;;;;;15.10;99.90;15.50;99253.00;;;;333668;29;89200;-88
2022/09/26 00:28:43;;;;;;;;;;;15.10;99.90;15.60;99254.00;;;;332830;29;83579;-87
2022/09/26 00:28:56;;;;;;;;;;;15.20;99.90;15.50;99263.00;;;;333602;29;90420;-87
2022/09/26 00:29:09;;;;;;;;;;;15.10;99.90;15.40;99257.00;;;;332560;29;82632;-88
2022/09/26 00:29:21;;;;;;;;;;;15.10;99.90;15.50;99259.00;;;;330819;29;90097;-88
2022/09/26 00:29:32;;;;;;;;;;;15.20;99.90;15.50;99256.00;;;;332588;29;82606;-88
2022/09/26 00:29:44;;;;;;;;;;;15.20;99.90;15.40;99266.00;;;;333392;29;90603;-87
2022/09/26 00:29:56;;;;;;;;;;;15.20;99.90;15.30;99260.00;;;;331317;29;83435;-88
2022/09/26 00:30:08;;;;;;;;;;;15.20;99.90;15.30;99268.00;;;;332368;29;88383;-87
2022/09/26 00:30:20;;;;;;;;;;;15.10;99.90;15.40;99260.00;;;;332769;29;83479;-88
2022/09/26 00:30:35;;;;;;;;;;;15.10;99.90;15.40;99257.00;;;;331005;29;88781;-88
2022/09/26 00:30:47;;;;;;;;;;;15.10;99.90;15.40;99262.00;;;;334075;29;82441;-90
2022/09/26 00:31:08;;;;;;;;;;;15.20;99.90;15.50;99265.00;;;;334763;29;90475;-88
2022/09/26 00:31:25;;;;;;;;;;;15.10;99.90;15.50;99265.00;;;;334077;29;83398;-88
2022/09/26 00:31:39;;;;;;;;;;;15.10;99.90;15.50;99264.00;;;;333055;29;92500;-88
2022/09/26 00:31:51;;;;;;;;;;;15.20;99.90;15.50;99268.00;;;;334013;29;83471;-88
2022/09/26 00:32:03;;;;;;;;;;;15.10;99.90;15.40;99262.00;;;;333590;29;87344;-87
2022/09/26 00:32:14;;;;;;;;;;;15.10;99.90;15.30;99258.00;;;;334051;29;83496;-88
2022/09/26 00:32:26;;;;;;;;;;;15.10;99.90;15.30;99261.00;;;;333401;29;90304;-88
2022/09/26 00:32:38;;;;;;;;;;;15.10;99.90;15.30;99265.00;;;;332720;29;82626;-86
2022/09/26 00:32:50;;;;;;;;;;;15.10;99.90;15.20;99265.00;;;;333544;29;90359;-88
2022/09/26 00:33:02;;;;;;;;;;;15.10;99.90;15.20;99255.00;;;;332713;29;83634;-88
2022/09/26 00:33:14;;;;;;;;;;;15.10;99.90;15.20;99256.00;;;;332240;29;90543;-87
2022/09/26 00:33:25;;;;;;;;;;;15.10;99.90;15.30;99257.00;;;;334019;29;82529;-88
2022/09/26 00:33:37;;;;;;;;;;;15.10;99.90;15.20;99253.00;;;;331080;29;92143;-88
2022/09/26 00:33:49;;;;;;;;;;;15.10;99.90;15.20;99259.00;;;;331423;29;83497;-87
2022/09/26 00:34:01;;;;;;;;;;;15.10;99.90;15.30;99255.00;;;;332355;29;88880;-87
2022/09/26 00:34:15;;;;;;;;;;;15.10;99.90;15.30;99258.00;;;;334121;29;82517;-88
2022/09/26 00:34:26;;;;;;;;;;;15.10;99.90;15.30;99268.00;;;;331918;29;91865;-88
2022/09/26 00:34:38;;;;;;;;;;;15.10;99.90;15.40;99261.00;;;;332742;29;82659;-88
2022/09/26 00:34:50;;;;;;;;;;;15.10;99.90;15.40;99262.00;;;;332217;29;89679;-88
2022/09/26 00:35:03;;;;;;;;;;;15.10;99.90;15.40;99267.00;;;;332574;29;82598;-88
2022/09/26 00:35:14;;;;;;;;;;;15.10;99.90;15.40;99260.00;;;;332200;29;89721;-87
2022/09/26 00:35:26;;;;;;;;;;;15.10;99.90;15.30;99261.00;;;;331531;29;83744;-88
2022/09/26 00:35:38;;;;;;;;;;;15.10;99.90;15.20;99261.00;;;;333560;29;89283;-87
2022/09/26 00:35:51;;;;;;;;;;;15.10;99.90;15.20;99259.00;;;;333766;29;83407;-87
2022/09/26 00:36:03;;;;;;;;;;;15.10;99.90;15.30;99262.00;;;;330886;29;91889;-88
2022/09/26 00:36:15;;;;;;;;;;;15.10;99.90;15.30;99266.00;;;;332791;29;82478;-87
2022/09/26 00:36:27;;;;;;;;;;;15.00;99.90;15.20;99261.00;;;;330930;29;90677;-87
2022/09/26 00:36:49;;;;;;;;;;;15.10;99.90;15.10;99257.00;;;;331114;29;83602;-88
2022/09/26 00:37:01;;;;;;;;;;;15.00;99.90;15.20;99256.00;;;;331929;29;89824;-88
2022/09/26 00:37:12;;;;;;;;;;;15.00;99.90;15.30;99254.00;;;;332443;29;83713;-88
2022/09/26 00:37:24;;;;;;;;;;;15.00;99.90;15.30;99259.00;;;;332119;29;92124;-88
2022/09/26 00:37:36;;;;;;;;;;;15.00;99.90;15.30;99258.00;;;;331599;29;82477;-88
2022/09/26 00:37:47;;;;;;;;;;;15.00;99.90;15.40;99254.00;;;;330860;29;92127;-88
2022/09/26 00:37:59;;;;;;;;;;;15.00;99.90;15.40;99246.00;;;;331504;29;83395;-87
2022/09/26 00:38:11;;;;;;;;;;;15.00;99.90;15.40;99249.00;;;;330981;29;87631;-88
2022/09/26 00:38:23;;;;;;;;;;;15.00;99.90;15.40;99249.00;;;;332642;29;82445;-87
2022/09/26 00:38:35;;;;;;;;;;;15.00;99.90;15.40;99253.00;;;;331023;29;89962;-88
2022/09/26 00:38:47;;;;;;;;;;;15.10;99.90;15.40;99250.00;;;;330063;29;82682;-88
2022/09/26 00:39:00;;;;;;;;;;;15.00;99.90;15.40;99249.00;;;;332085;29;92012;-88
2022/09/26 00:39:13;;;;;;;;;;;15.00;99.90;15.40;99253.00;;;;331418;29;82484;-88
2022/09/26 00:39:25;;;;;;;;;;;15.10;99.90;15.30;99250.00;;;;332322;29;89186;-87
2022/09/26 00:39:36;;;;;;;;;;;15.00;99.90;15.30;99252.00;;;;333838;29;83585;-88
2022/09/26 00:39:48;;;;;;;;;;;15.10;99.90;15.40;99250.00;;;;329526;29;90440;-87
2022/09/26 00:40:00;;;;;;;;;;;15.00;99.90;15.40;99250.00;;;;332453;29;82662;-88
2022/09/26 00:40:12;;;;;;;;;;;15.10;99.90;15.40;99250.00;;;;330961;29;88516;-87
2022/09/26 00:40:25;;;;;;;;;;;15.00;99.90;15.40;99254.00;;;;332832;29;83281;-87
2022/09/26 00:40:37;;;;;;;;;;;15.10;99.90;15.40;99249.00;;;;332352;29;86763;-88
2022/09/26 00:40:49;;;;;;;;;;;15.10;99.90;15.50;99249.00;;;;332761;29;83350;-87
2022/09/26 00:41:01;;;;;;;;;;;15.10;99.90;15.50;99254.00;;;;332301;29;91596;-87
2022/09/26 00:41:13;;;;;;;;;;;15.10;99.90;15.40;99255.00;;;;334974;29;84707;-88
2022/09/26 00:41:25;;;;;;;;;;;15.10;99.90;15.40;99255.00;;;;334871;29;90735;-88
2022/09/26 00:41:37;;;;;;;;;;;15.10;99.90;15.50;99255.00;;;;332714;29;83363;-88
2022/09/26 00:41:48;;;;;;;;;;;15.10;99.90;15.50;99243.00;;;;332030;29;90628;-87
2022/09/26 00:42:00;;;;;;;;;;;15.10;99.90;15.30;99252.00;;;;331428;29;82590;-88
2022/09/26 00:42:13;;;;;;;;;;;15.10;99.90;15.30;99252.00;;;;331122;29;88786;-88
2022/09/26 00:42:24;;;;;;;;;;;15.10;99.90;15.20;99252.00;;;;332541;29;83452;-88
2022/09/26 00:42:36;;;;;;;;;;;15.10;99.90;15.30;99252.00;;;;333474;29;91478;-88
2022/09/26 00:42:48;;;;;;;;;;;15.10;99.90;15.20;99258.00;;;;333966;29;82519;-88
2022/09/26 00:43:00;;;;;;;;;;;15.10;99.90;15.30;99254.00;;;;336116;28;89180;-88
2022/09/26 00:43:30;;;;;;;;;;;15.10;99.90;15.40;99259.00;;;;335833;29;81072;-88
2022/09/26 00:43:49;;;;;;;;;;;15.10;99.90;15.40;99258.00;;;;333536;29;90401;-87
2022/09/26 00:44:01;;;;;;;;;;;15.10;99.90;15.40;99250.00;;;;332774;29;83521;-88
2022/09/26 00:44:34;;;;;;;;;;;15.10;99.90;15.30;99255.00;;;;333348;29;92217;-88
2022/09/26 00:44:48;;;;;;;;;;;15.10;99.90;15.30;99252.00;;;;333841;29;82673;-88
2022/09/26 00:45:00;;;;;;;;;;;15.10;99.90;15.40;99251.00;;;;333350;29;88432;-88
2022/09/26 00:45:11;;;;;;;;;;;15.10;99.90;15.40;99247.00;;;;332762;29;83507;-88
2022/09/26 00:45:25;;;;;;;;;;;15.10;99.90;15.30;99246.00;;;;333556;29;89114;-88
2022/09/26 00:45:36;;;;;;;;;;;15.10;99.90;15.30;99255.00;;;;333922;29;82911;-88
2022/09/26 00:45:48;;;;;;;;;;;15.10;99.90;15.30;99253.00;;;;332227;29;89905;-87
2022/09/26 00:46:12;;;;;;;;;;;15.10;99.90;15.40;99256.00;;;;332768;29;83420;-88
2022/09/26 00:46:29;;;;;;;;;;;15.10;99.90;15.40;99249.00;;;;333454;29;89590;-88
2022/09/26 00:46:43;;;;;;;;;;;15.10;99.90;15.30;99249.00;;;;333821;29;83496;-88
2022/09/26 00:46:54;;;;;;;;;;;15.10;99.90;15.30;99257.00;;;;333268;29;92623;-88
2022/09/26 00:47:16;;;;;;;;;;;15.10;99.90;15.20;99255.00;;;;332552;29;82756;-88
2022/09/26 00:47:36;;;;;;;;;;;15.10;99.90;15.20;99246.00;;;;331010;29;92411;-88
2022/09/26 00:48:08;;;;;;;;;;;15.00;99.90;15.20;99249.00;;;;333767;29;83602;-87
2022/09/26 00:48:20;;;;;;;;;;;15.00;99.90;15.20;99252.00;;;;332007;29;90356;-88
2022/09/26 00:48:32;;;;;;;;;;;15.10;99.90;15.20;99245.00;;;;331465;29;83510;-88
2022/09/26 00:48:45;;;;;;;;;;;15.00;99.90;15.20;99243.00;;;;333623;29;88207;-88
2022/09/26 00:49:18;;;;;;;;;;;15.00;99.90;15.00;99248.00;;;;332683;29;82579;-88
2022/09/26 00:49:32;;;;;;;;;;;15.00;99.90;14.90;99244.00;;;;334747;29;91820;-87
2022/09/26 00:49:44;;;;;;;;;;;14.90;99.90;15.00;99242.00;;;;334970;29;82601;-87
2022/09/26 00:49:58;;;;;;;;;;;14.90;99.90;15.00;99238.00;;;;332230;29;90078;-88
2022/09/26 00:50:22;;;;;;;;;;;14.80;99.90;15.00;99247.00;;;;332602;29;83482;-88
2022/09/26 00:50:38;;;;;;;;;;;14.90;99.90;14.90;99244.00;;;;330920;29;89501;-87
2022/09/26 00:50:50;;;;;;;;;;;14.80;99.90;14.80;99246.00;;;;332634;29;82620;-88
2022/09/26 00:51:01;;;;;;;;;;;14.80;99.90;14.90;99244.00;;;;334672;29;89702;-88
2022/09/26 00:51:13;;;;;;;;;;;14.80;99.90;14.80;99241.00;;;;332775;29;83482;-88
2022/09/26 00:51:24;;;;;;;;;;;14.70;99.90;14.80;99246.00;;;;332045;29;92327;-87
2022/09/26 00:51:37;;;;;;;;;;;14.80;99.90;14.90;99246.00;;;;332454;29;82666;-87
2022/09/26 00:52:11;;;;;;;;;;;14.70;99.90;14.80;99245.00;;;;333295;29;91636;-88
2022/09/26 00:52:35;;;;;;;;;;;14.70;99.90;14.70;99237.00;;;;332554;29;83643;-87
2022/09/26 00:53:14;;;;;;;;;;;14.70;99.90;14.70;99242.00;;;;332287;29;90027;-88
2022/09/26 00:53:29;;;;;;;;;;;14.60;99.90;14.60;99244.00;;;;330077;29;83577;-87
2022/09/26 00:53:43;;;;;;;;;;;14.60;99.90;14.70;99246.00;;;;330205;29;89664;-85
2022/09/26 00:53:55;;;;;;;;;;;14.60;99.90;14.80;99238.00;;;;333493;29;83617;-87
2022/09/26 00:54:10;;;;;;;;;;;14.60;99.90;14.80;99236.00;;;;331103;29;89404;-88
2022/09/26 00:54:21;;;;;;;;;;;14.60;99.90;14.70;99241.00;;;;332455;29;83640;-87
2022/09/26 00:54:33;;;;;;;;;;;14.60;99.90;14.80;99238.00;;;;334925;29;88434;-87
2022/09/26 00:54:47;;;;;;;;;;;14.60;99.90;14.80;99243.00;;;;335154;29;83518;-87
2022/09/26 00:55:00;;;;;;;;;;;14.60;99.90;14.80;99247.00;;;;334702;29;90321;-87
2022/09/26 00:55:13;;;;;;;;;;;14.60;99.90;14.80;99244.00;;;;334065;29;83423;-87
2022/09/26 00:55:29;;;;;;;;;;;14.60;99.90;14.70;99239.00;;;;334861;29;90303;-88
2022/09/26 00:55:43;;;;;;;;;;;14.50;99.90;14.70;99239.00;;;;334015;29;83336;-88
2022/09/26 00:55:57;;;;;;;;;;;14.60;99.90;14.70;99239.00;;;;333634;29;87853;-87
2022/09/26 00:56:17;;;;;;;;;;;14.50;99.90;14.80;99245.00;;;;332510;29;83324;-87
2022/09/26 00:56:32;;;;;;;;;;;14.50;99.90;14.90;99245.00;;;;332242;29;88479;-87
2022/09/26 00:56:46;;;;;;;;;;;14.60;99.90;14.90;99239.00;;;;332701;29;82494;-88
2022/09/26 00:57:02;;;;;;;;;;;14.60;99.90;14.90;99245.00;;;;333508;29;87708;-87
2022/09/26 00:57:20;;;;;;;;;;;14.50;99.90;14.80;99250.00;;;;333835;29;83536;-88
2022/09/26 00:57:37;;;;;;;;;;;14.60;99.90;14.80;99250.00;;;;331868;29;90577;-87
2022/09/26 00:57:52;;;;;;;;;;;14.60;99.90;14.80;99251.00;;;;333639;29;82691;-89
2022/09/26 00:58:43;;;;;;;;;;;14.50;99.90;14.70;99247.00;;;;330924;29;90769;-88
2022/09/26 00:59:00;;;;;;;;;;;14.50;99.90;14.60;99239.00;;;;328900;29;83511;-88
2022/09/26 00:59:16;;;;;;;;;;;14.50;99.90;14.60;99233.00;;;;332532;29;89205;-88
2022/09/26 00:59:31;;;;;;;;;;;14.50;99.90;14.70;99236.00;;;;332506;29;83538;-88
2022/09/26 00:59:45;;;;;;;;;;;14.40;99.90;14.70;99237.00;;;;331023;29;90126;-87
2022/09/26 01:00:00;;;;;;;;;;;14.50;99.90;14.70;99238.00;;;;332614;29;83578;-88
2022/09/26 01:00:13;;;;;;;;;;;14.50;99.90;14.60;99238.00;;;;332195;29;91727;-88
2022/09/26 01:00:26;;;;;;;;;;;14.40;99.90;14.60;99231.00;;;;330145;29;82638;-87
2022/09/26 01:00:38;;;;;;;;;;;14.40;99.90;14.60;99231.00;;;;331038;29;91588;-87
2022/09/26 01:00:53;;;;;;;;;;;14.40;99.90;14.60;99239.00;;;;331398;29;82445;-88
2022/09/26 01:01:05;;;;;;;;;;;14.40;99.90;14.60;99240.00;;;;332016;29;92505;-88
2022/09/26 01:01:17;;;;;;;;;;;14.40;99.90;14.60;99243.00;;;;331272;29;83624;-88
2022/09/26 01:01:29;;;;;;;;;;;14.40;99.90;14.60;99244.00;;;;331024;29;88067;-87
2022/09/26 01:01:41;;;;;;;;;;;14.40;99.90;14.60;99236.00;;;;333884;29;83545;-86
2022/09/26 01:01:55;;;;;;;;;;;14.40;99.90;14.60;99236.00;;;;334881;29;89105;-88
2022/09/26 01:02:09;;;;;;;;;;;14.40;99.90;14.60;99245.00;;;;333564;29;82538;-88
2022/09/26 01:02:24;;;;;;;;;;;14.40;99.90;14.50;99239.00;;;;331560;29;89430;-87
2022/09/26 01:02:36;;;;;;;;;;;14.40;99.90;14.50;99246.00;;;;333983;29;83321;-88
2022/09/26 01:02:48;;;;;;;;;;;14.40;99.90;14.50;99241.00;;;;334751;29;92544;-87
2022/09/26 01:03:00;;;;;;;;;;;14.40;99.90;14.50;99244.00;;;;334031;29;82486;-88
2022/09/26 01:03:12;;;;;;;;;;;14.30;99.90;14.60;99237.00;;;;332101;29;92667;-87
2022/09/26 01:03:24;;;;;;;;;;;14.30;99.90;14.50;99238.00;;;;332731;29;83374;-88
2022/09/26 01:03:36;;;;;;;;;;;14.30;99.90;14.50;99239.00;;;;333586;29;89272;-88
2022/09/26 01:03:47;;;;;;;;;;;14.30;99.90;14.50;99238.00;;;;331336;29;82646;-88
2022/09/26 01:04:00;;;;;;;;;;;14.30;99.90;14.50;99240.00;;;;333479;29;88665;-88
2022/09/26 01:04:12;;;;;;;;;;;14.30;99.90;14.60;99242.00;;;;334039;29;83426;-86
2022/09/26 01:04:27;;;;;;;;;;;14.30;99.90;14.60;99240.00;;;;332278;29;88972;-87
2022/09/26 01:04:39;;;;;;;;;;;14.30;99.90;14.60;99243.00;;;;334098;29;83388;-87
2022/09/26 01:04:51;;;;;;;;;;;14.30;99.90;14.60;99245.00;;;;333458;29;90578;-88
2022/09/26 01:05:03;;;;;;;;;;;14.30;99.90;14.60;99242.00;;;;333957;29;82455;-88
2022/09/26 01:05:17;;;;;;;;;;;14.30;99.90;14.60;99250.00;;;;333498;29;90375;-88
2022/09/26 01:05:28;;;;;;;;;;;14.30;99.90;14.60;99241.00;;;;333749;29;83650;-88
2022/09/26 01:05:40;;;;;;;;;;;14.30;99.90;14.70;99241.00;;;;332160;29;91760;-87
2022/09/26 01:05:52;;;;;;;;;;;14.30;99.90;14.70;99241.00;;;;333810;29;83557;-87
2022/09/26 01:06:04;;;;;;;;;;;14.30;99.90;14.60;99246.00;;;;334837;29;88910;-87
2022/09/26 01:06:16;;;;;;;;;;;14.30;99.90;14.60;99240.00;;;;333935;29;83543;-87
2022/09/26 01:06:27;;;;;;;;;;;14.40;99.90;14.50;99241.00;;;;332384;29;86689;-88
2022/09/26 01:06:39;;;;;;;;;;;14.30;99.90;14.50;99251.00;;;;333977;29;83476;-88
2022/09/26 01:06:51;;;;;;;;;;;14.30;99.90;14.50;99239.00;;;;334593;29;89473;-87
2022/09/26 01:07:06;;;;;;;;;;;14.30;99.90;14.50;99237.00;;;;333938;29;83368;-87
2022/09/26 01:07:20;;;;;;;;;;;14.30;99.90;14.60;99245.00;;;;333486;29;90006;-88
2022/09/26 01:07:31;;;;;;;;;;;14.30;99.90;14.70;99242.00;;;;335092;29;83564;-88
2022/09/26 01:07:43;;;;;;;;;;;14.30;99.90;14.60;99243.00;;;;332294;29;89489;-87
2022/09/26 01:07:55;;;;;;;;;;;14.30;99.90;14.50;99247.00;;;;332732;29;83858;-88
2022/09/26 01:08:07;;;;;;;;;;;14.30;99.90;14.50;99238.00;;;;332146;29;90247;-87
2022/09/26 01:08:20;;;;;;;;;;;14.30;99.90;14.50;99245.00;;;;332696;29;83516;-87
2022/09/26 01:08:38;;;;;;;;;;;14.30;99.90;14.60;99240.00;;;;333277;29;91752;-88
2022/09/26 01:08:55;;;;;;;;;;;14.30;99.90;14.50;99243.00;;;;333904;29;82628;-87
2022/09/26 01:09:07;;;;;;;;;;;14.30;99.90;14.50;99238.00;;;;333396;29;88369;-87
2022/09/26 01:09:19;;;;;;;;;;;14.30;99.90;14.60;99238.00;;;;332684;29;83467;-87
2022/09/26 01:09:31;;;;;;;;;;;14.30;99.90;14.50;99235.00;;;;333286;29;92619;-87
2022/09/26 01:09:43;;;;;;;;;;;14.30;99.90;14.60;99240.00;;;;334041;29;83361;-88
2022/09/26 01:09:56;;;;;;;;;;;14.30;99.90;14.60;99239.00;;;;332163;29;89225;-88
2022/09/26 01:10:09;;;;;;;;;;;14.30;99.90;14.60;99240.00;;;;332831;29;82452;-87
2022/09/26 01:10:21;;;;;;;;;;;14.30;99.90;14.60;99243.00;;;;332301;29;90625;-88
2022/09/26 01:10:35;;;;;;;;;;;14.30;99.90;14.60;99239.00;;;;334078;29;82599;-88
2022/09/26 01:10:47;;;;;;;;;;;14.30;99.90;14.50;99236.00;;;;333561;29;90396;-88
2022/09/26 01:10:58;;;;;;;;;;;14.30;99.90;14.60;99227.00;;;;334082;29;83396;-88
2022/09/26 01:11:13;;;;;;;;;;;14.30;99.90;14.60;99243.00;;;;333325;29;91815;-87
2022/09/26 01:11:28;;;;;;;;;;;14.30;99.90;14.60;99233.00;;;;332514;29;82606;-88